createdAt,value
2023-03-15T00:00:49.059Z,2.90
2023-03-15T00:03:16.375Z,3.20
2023-03-15T00:05:44.659Z,3.80
2023-03-15T00:08:12.046Z,3.50
2023-03-15T00:10:41.673Z,3.13
2023-03-15T00:13:09.322Z,2.80
2023-03-15T00:15:36.953Z,2.93
2023-03-15T00:18:04.279Z,3.50
2023-03-15T00:20:31.870Z,3.27
2023-03-15T00:22:59.254Z,3.00
2023-03-15T00:25:26.571Z,3.37
2023-03-15T00:27:53.851Z,2.43
2023-03-15T00:30:21.187Z,3.37
2023-03-15T00:32:48.466Z,2.83
2023-03-15T00:35:17.411Z,3.07
2023-03-15T00:37:45.111Z,3.00
2023-03-15T00:40:12.888Z,3.27
2023-03-15T00:42:40.434Z,2.43
2023-03-15T00:45:08.254Z,2.70
2023-03-15T00:47:35.634Z,2.37
2023-03-15T00:50:02.981Z,2.83
2023-03-15T00:52:31.790Z,3.37
2023-03-15T00:54:59.059Z,2.70
2023-03-15T00:57:26.622Z,2.57
2023-03-15T00:59:53.960Z,3.20
2023-03-15T01:02:22.934Z,2.90
2023-03-15T01:04:51.210Z,2.70
2023-03-15T01:07:18.482Z,3.00
2023-03-15T01:09:48.433Z,2.60
2023-03-15T01:12:15.197Z,2.47
2023-03-15T01:14:42.603Z,3.00
2023-03-15T01:17:09.975Z,3.30
2023-03-15T01:19:37.430Z,2.73
2023-03-15T01:22:04.678Z,2.83
2023-03-15T01:24:32.032Z,2.60
2023-03-15T01:26:59.360Z,2.40
2023-03-15T01:29:27.265Z,3.00
2023-03-15T01:31:54.732Z,2.87
2023-03-15T01:34:22.043Z,2.47
2023-03-15T01:36:53.077Z,3.10
2023-03-15T01:39:20.459Z,1.97
2023-03-15T01:41:47.800Z,2.30
2023-03-15T01:44:16.222Z,2.73
2023-03-15T01:46:43.640Z,3.17
2023-03-15T01:49:18.394Z,3.17
2023-03-15T01:51:50.064Z,2.73
2023-03-15T01:54:18.935Z,2.70
2023-03-15T01:56:47.913Z,2.40
2023-03-15T01:59:16.785Z,2.93
2023-03-15T02:01:45.349Z,2.50
2023-03-15T02:04:14.230Z,2.97
2023-03-15T02:06:43.861Z,2.23
2023-03-15T02:09:13.324Z,2.80
2023-03-15T02:11:41.214Z,2.63
2023-03-15T02:14:10.897Z,2.80
2023-03-15T02:16:38.551Z,2.10
2023-03-15T02:19:07.410Z,2.73
2023-03-15T02:21:36.255Z,2.77
2023-03-15T02:24:05.137Z,3.20
2023-03-15T02:26:33.995Z,3.50
2023-03-15T02:29:01.367Z,2.80
2023-03-15T02:31:29.382Z,3.10
2023-03-15T02:33:56.787Z,2.80
2023-03-15T02:36:25.661Z,2.97
2023-03-15T02:38:53.584Z,2.93
2023-03-15T02:41:28.140Z,3.30
2023-03-15T02:43:57.387Z,2.93
2023-03-15T02:46:24.950Z,3.60
2023-03-15T02:48:54.047Z,2.93
2023-03-15T02:51:23.111Z,3.10
2023-03-15T02:53:50.549Z,3.50
2023-03-15T02:56:17.946Z,3.27
2023-03-15T02:58:48.260Z,3.30
2023-03-15T03:01:16.501Z,3.53
2023-03-15T03:03:45.903Z,3.63
2023-03-15T03:06:13.898Z,3.67
2023-03-15T03:08:41.418Z,3.03
2023-03-15T03:11:08.749Z,3.57
2023-03-15T03:13:36.095Z,3.20
2023-03-15T03:16:03.413Z,3.07
2023-03-15T03:18:32.955Z,3.40
2023-03-15T03:21:00.383Z,3.20
2023-03-15T03:23:27.925Z,2.93
2023-03-15T03:25:56.327Z,3.20
2023-03-15T03:28:28.019Z,5.30
2023-03-15T03:30:55.965Z,3.80
2023-03-15T03:33:23.751Z,3.20
2023-03-15T03:35:51.117Z,3.93
2023-03-15T03:38:18.474Z,3.87
2023-03-15T03:40:46.247Z,3.90
2023-03-15T03:43:13.589Z,3.93
2023-03-15T03:45:40.927Z,3.83
2023-03-15T03:48:08.867Z,4.60
2023-03-15T03:50:36.347Z,4.20
2023-03-15T03:53:03.857Z,4.93
2023-03-15T03:55:32.814Z,4.83
2023-03-15T03:58:01.075Z,4.83
2023-03-15T04:00:28.413Z,5.23
2023-03-15T04:02:55.774Z,5.80
2023-03-15T04:05:23.223Z,5.60
2023-03-15T04:07:50.541Z,5.70
2023-03-15T04:10:17.859Z,5.80
2023-03-15T04:12:45.297Z,5.40
2023-03-15T04:15:13.138Z,5.40
2023-03-15T04:17:40.494Z,5.57
2023-03-15T04:20:09.627Z,5.30
2023-03-15T04:22:37.010Z,5.67
2023-03-15T04:25:04.350Z,5.27
2023-03-15T04:27:31.680Z,5.80
2023-03-15T04:29:59.030Z,5.60
2023-03-15T04:32:26.371Z,5.20
2023-03-15T04:34:55.322Z,5.53
2023-03-15T04:37:22.572Z,5.40
2023-03-15T04:39:51.495Z,6.47
2023-03-15T04:42:19.100Z,5.80
2023-03-15T04:44:46.739Z,6.90
2023-03-15T04:47:14.071Z,5.80
2023-03-15T04:49:41.416Z,6.50
2023-03-15T04:52:08.748Z,7.07
2023-03-15T04:54:36.107Z,5.93
2023-03-15T04:57:03.421Z,7.03
2023-03-15T04:59:31.055Z,6.47
2023-03-15T05:01:58.407Z,6.40
2023-03-15T05:04:25.843Z,5.90
2023-03-15T05:06:53.202Z,6.40
2023-03-15T05:09:21.842Z,6.10
2023-03-15T05:11:49.377Z,7.10
2023-03-15T05:14:16.724Z,6.20
2023-03-15T05:16:44.041Z,7.30
2023-03-15T05:19:11.409Z,7.23
2023-03-15T05:21:38.734Z,6.43
2023-03-15T05:24:06.098Z,7.00
2023-03-15T05:26:34.786Z,5.83
2023-03-15T05:29:02.130Z,6.57
2023-03-15T05:31:29.650Z,6.40
2023-03-15T05:33:56.956Z,5.90
2023-03-15T05:36:24.370Z,6.17
2023-03-15T05:38:51.764Z,6.33
2023-03-15T05:41:19.069Z,6.13
2023-03-15T05:43:46.401Z,4.90
2023-03-15T05:46:13.861Z,5.97
2023-03-15T05:48:41.176Z,4.83
2023-03-15T05:51:08.512Z,5.73
2023-03-15T05:53:35.866Z,4.47
2023-03-15T05:56:03.249Z,4.90
2023-03-15T05:58:30.627Z,4.47
2023-03-15T06:00:58.571Z,5.87
2023-03-15T06:03:25.884Z,4.80
2023-03-15T06:05:53.442Z,4.70
2023-03-15T06:08:20.967Z,5.47
2023-03-15T06:10:48.286Z,4.50
2023-03-15T06:13:18.118Z,5.33
2023-03-15T06:15:46.126Z,4.90
2023-03-15T06:18:13.696Z,4.67
2023-03-15T06:20:41.560Z,4.13
2023-03-15T06:23:08.824Z,5.03
2023-03-15T06:25:36.169Z,4.20
2023-03-15T06:28:03.523Z,4.10
2023-03-15T06:30:31.145Z,4.50
2023-03-15T06:32:58.598Z,3.80
2023-03-15T06:35:26.007Z,3.40
2023-03-15T06:37:53.292Z,4.00
2023-03-15T06:40:20.634Z,3.90
2023-03-15T06:42:49.955Z,4.17
2023-03-15T06:45:17.413Z,3.80
2023-03-15T06:47:44.765Z,4.00
2023-03-15T06:50:12.302Z,3.40
2023-03-15T06:52:39.718Z,3.90
2023-03-15T06:55:07.363Z,4.57
2023-03-15T06:57:34.634Z,3.37
2023-03-15T07:00:03.666Z,3.30
2023-03-15T07:02:32.651Z,3.40
2023-03-15T07:05:00.050Z,3.80
2023-03-15T07:07:27.374Z,4.20
2023-03-15T07:09:55.309Z,4.60
2023-03-15T07:12:22.648Z,4.00
2023-03-15T07:14:49.974Z,3.73
2023-03-15T07:17:18.227Z,4.10
2023-03-15T07:19:55.803Z,4.30
2023-03-15T07:22:14.599Z,4.10
2023-03-15T07:24:41.906Z,3.93
2023-03-15T07:27:10.700Z,3.90
2023-03-15T07:29:38.058Z,3.70
2023-03-15T07:32:05.804Z,3.80
2023-03-15T07:34:33.197Z,4.10
2023-03-15T07:37:00.668Z,3.47
2023-03-15T07:39:28.949Z,3.60
2023-03-15T07:41:56.286Z,3.60
2023-03-15T07:44:23.609Z,3.43
2023-03-15T07:46:51.040Z,3.73
2023-03-15T07:49:18.797Z,3.87
2023-03-15T07:51:46.132Z,3.77
2023-03-15T07:54:13.463Z,3.93
2023-03-15T07:56:40.811Z,3.17
2023-03-15T07:59:08.517Z,3.80
2023-03-15T08:01:35.900Z,3.50
2023-03-15T08:04:03.191Z,3.60
2023-03-15T08:06:31.548Z,3.63
2023-03-15T08:09:00.438Z,3.37
2023-03-15T08:11:27.854Z,3.80
2023-03-15T08:13:55.177Z,3.60
2023-03-15T08:16:22.607Z,3.20
2023-03-15T08:18:49.952Z,4.33
2023-03-15T08:21:17.283Z,4.20
2023-03-15T08:23:44.618Z,3.00
2023-03-15T08:26:11.990Z,3.20
2023-03-15T08:28:39.405Z,3.20
2023-03-15T08:31:07.697Z,3.77
2023-03-15T08:33:35.011Z,3.80
2023-03-15T08:36:02.531Z,3.53
2023-03-15T08:38:29.864Z,3.43
2023-03-15T08:40:57.669Z,3.37
2023-03-15T08:43:25.076Z,3.30
2023-03-15T08:46:00.578Z,3.57
2023-03-15T08:48:22.326Z,3.10
2023-03-15T08:50:49.685Z,3.27
2023-03-15T08:53:17.006Z,4.20
2023-03-15T08:55:44.284Z,3.70
2023-03-15T08:58:13.620Z,4.00
2023-03-15T09:00:41.020Z,4.17
2023-03-15T09:03:08.518Z,4.53
2023-03-15T09:05:36.680Z,4.00
2023-03-15T09:08:04.682Z,4.53
2023-03-15T09:10:32.013Z,3.87
2023-03-15T09:12:59.328Z,3.47
2023-03-15T09:15:26.947Z,4.13
2023-03-15T09:17:54.278Z,3.60
2023-03-15T09:20:23.214Z,4.50
2023-03-15T09:22:54.220Z,3.53
2023-03-15T09:25:21.896Z,4.20
2023-03-15T09:27:49.513Z,4.23
2023-03-15T09:30:17.030Z,3.73
2023-03-15T09:32:45.510Z,3.00
2023-03-15T09:35:14.370Z,3.27
2023-03-15T09:37:42.229Z,4.10
2023-03-15T09:40:17.358Z,3.80
2023-03-15T09:43:01.566Z,4.13
2023-03-15T09:45:30.444Z,3.80
2023-03-15T09:48:02.798Z,4.53
2023-03-15T09:50:31.672Z,3.47
2023-03-15T09:53:00.522Z,3.10
2023-03-15T09:55:28.369Z,4.00
2023-03-15T09:58:01.009Z,3.37
2023-03-15T10:00:29.873Z,3.93
2023-03-15T10:03:03.109Z,4.13
2023-03-15T10:05:32.005Z,4.00
2023-03-15T10:07:59.318Z,4.10
2023-03-15T10:10:28.149Z,4.20
2023-03-15T10:12:57.007Z,5.17
2023-03-15T10:15:31.648Z,4.40
2023-03-15T10:18:01.100Z,4.23
2023-03-15T10:20:35.753Z,4.40
2023-03-15T10:23:07.986Z,4.50
2023-03-15T10:25:36.061Z,4.90
2023-03-15T10:28:04.940Z,4.60
2023-03-15T10:30:33.661Z,3.77
2023-03-15T10:33:02.663Z,4.33
2023-03-15T10:35:31.917Z,4.50
2023-03-15T10:37:59.751Z,4.47
2023-03-15T10:40:43.573Z,3.80
2023-03-15T10:43:15.460Z,4.17
2023-03-15T10:45:42.856Z,4.70
2023-03-15T10:48:10.410Z,4.53
2023-03-15T10:50:38.818Z,3.50
2023-03-15T10:53:11.057Z,3.63
2023-03-15T10:55:39.940Z,3.50
2023-03-15T10:58:14.792Z,3.80
2023-03-15T11:00:43.683Z,3.63
2023-03-15T11:03:18.465Z,3.70
2023-03-15T11:05:47.567Z,3.90
2023-03-15T11:08:16.395Z,3.47
2023-03-15T11:10:44.335Z,2.93
2023-03-15T11:13:15.975Z,3.00
2023-03-15T11:15:44.893Z,2.77
2023-03-15T11:18:13.881Z,2.80
2023-03-15T11:20:41.349Z,3.17
2023-03-15T11:23:19.359Z,2.73
2023-03-15T11:25:46.820Z,2.80
2023-03-15T11:28:18.530Z,3.33
2023-03-15T11:30:48.461Z,3.27
2023-03-15T11:33:17.172Z,3.33
2023-03-15T11:35:48.352Z,3.40
2023-03-15T11:38:17.288Z,2.60
2023-03-15T11:40:47.930Z,3.37
2023-03-15T11:43:32.096Z,2.60
2023-03-15T11:46:01.284Z,3.50
2023-03-15T11:48:36.701Z,2.60
2023-03-15T11:51:04.687Z,2.23
2023-03-15T11:53:33.645Z,2.50
2023-03-15T11:56:02.534Z,2.17
2023-03-15T11:58:31.517Z,1.90
2023-03-15T12:01:03.684Z,2.00
2023-03-15T12:03:35.839Z,2.60
2023-03-15T12:06:13.589Z,2.47
2023-03-15T12:08:42.749Z,2.10
2023-03-15T12:11:23.680Z,3.30
2023-03-15T12:13:55.434Z,2.80
2023-03-15T12:16:23.728Z,2.30
2023-03-15T12:18:51.133Z,2.80
2023-03-15T12:21:23.048Z,2.17
2023-03-15T12:23:51.873Z,2.33
2023-03-15T12:26:29.946Z,2.73
2023-03-15T12:29:07.765Z,2.63
2023-03-15T12:31:45.305Z,2.80
2023-03-15T12:34:14.201Z,3.30
2023-03-15T12:36:43.098Z,3.60
2023-03-15T12:39:12.092Z,3.20
2023-03-15T12:41:43.598Z,3.40
2023-03-15T12:44:27.095Z,3.40
2023-03-15T12:46:55.582Z,3.37
2023-03-15T12:49:27.334Z,2.50
2023-03-15T12:51:58.199Z,3.93
2023-03-15T12:54:26.371Z,3.43
2023-03-15T12:56:58.151Z,3.30
2023-03-15T12:59:30.155Z,3.50
2023-03-15T13:01:58.563Z,3.73
2023-03-15T13:04:27.260Z,3.37
2023-03-15T13:07:12.554Z,3.80
2023-03-15T13:09:42.113Z,3.57
2023-03-15T13:12:11.332Z,3.80
2023-03-15T13:14:42.921Z,4.00
2023-03-15T13:17:28.393Z,4.40
2023-03-15T13:20:13.400Z,3.63
2023-03-15T13:22:55.008Z,4.17
2023-03-15T13:25:15.710Z,3.83
2023-03-15T13:27:47.571Z,3.97
2023-03-15T13:30:28.991Z,5.53
2023-03-15T13:33:14.382Z,3.13
2023-03-15T13:35:43.806Z,3.33
2023-03-15T13:38:15.737Z,3.33
2023-03-15T13:40:46.817Z,2.90
2023-03-15T13:43:14.127Z,3.13
2023-03-15T13:45:44.841Z,2.77
2023-03-15T13:48:13.406Z,3.50
2023-03-15T13:50:40.895Z,2.50
2023-03-15T13:53:08.374Z,2.83
2023-03-15T13:55:37.061Z,2.60
2023-03-15T13:58:08.695Z,2.90
2023-03-15T14:00:36.915Z,3.50
2023-03-15T14:03:05.858Z,3.70
2023-03-15T14:05:36.362Z,3.00
2023-03-15T14:08:05.813Z,2.70
2023-03-15T14:10:37.658Z,3.17
2023-03-15T14:13:24.805Z,2.93
2023-03-15T14:15:53.702Z,2.80
2023-03-15T14:18:24.860Z,2.70
2023-03-15T14:20:56.372Z,3.20
2023-03-15T14:23:25.495Z,3.00
2023-03-15T14:25:54.085Z,3.37
2023-03-15T14:28:22.001Z,3.13
2023-03-15T14:30:54.034Z,3.50
2023-03-15T14:33:25.630Z,2.90
2023-03-15T14:35:54.666Z,3.63
2023-03-15T14:38:23.572Z,3.57
2023-03-15T14:40:51.755Z,3.03
2023-03-15T14:43:19.458Z,2.27
2023-03-15T14:45:47.807Z,2.40
2023-03-15T14:48:23.040Z,2.53
2023-03-15T14:50:50.680Z,2.67
2023-03-15T14:53:22.000Z,2.87
2023-03-15T14:55:49.421Z,2.57
2023-03-15T14:58:20.779Z,2.47
2023-03-15T15:00:49.426Z,2.97
2023-03-15T15:03:18.309Z,2.50
2023-03-15T15:05:46.825Z,2.17
2023-03-15T15:08:15.864Z,2.60
2023-03-15T15:10:44.585Z,3.13
2023-03-15T15:13:13.487Z,2.43
2023-03-15T15:15:54.661Z,2.73
2023-03-15T15:18:09.833Z,2.37
2023-03-15T15:20:37.154Z,1.90
2023-03-15T15:23:04.463Z,2.40
2023-03-15T15:25:33.574Z,2.40
2023-03-15T15:28:01.005Z,2.67
2023-03-15T15:30:29.897Z,2.30
2023-03-15T15:32:57.312Z,1.93
2023-03-15T15:35:26.217Z,2.70
2023-03-15T15:37:53.603Z,3.07
2023-03-15T15:40:31.663Z,2.80
2023-03-15T15:42:59.480Z,2.40
2023-03-15T15:45:26.982Z,1.93
2023-03-15T15:47:54.307Z,1.90
2023-03-15T15:50:21.998Z,2.40
2023-03-15T15:52:50.436Z,3.00
2023-03-15T15:55:23.222Z,1.83
2023-03-15T15:57:51.839Z,2.30
2023-03-15T16:00:20.800Z,2.80
2023-03-15T16:02:48.142Z,2.50
2023-03-15T16:05:15.648Z,2.30
2023-03-15T16:07:42.977Z,2.10
2023-03-15T16:10:11.846Z,2.63
2023-03-15T16:12:39.209Z,2.23
2023-03-15T16:15:06.934Z,2.00
2023-03-15T16:17:34.437Z,2.40
2023-03-15T16:20:01.951Z,2.40
2023-03-15T16:22:29.287Z,1.83
2023-03-15T16:25:00.348Z,2.10
2023-03-15T16:27:28.588Z,2.80
2023-03-15T16:29:56.101Z,2.03
2023-03-15T16:32:37.247Z,2.50
2023-03-15T16:34:54.254Z,2.23
2023-03-15T16:37:26.435Z,2.07
2023-03-15T16:39:57.511Z,2.33
2023-03-15T16:42:25.606Z,3.27
2023-03-15T16:44:53.672Z,2.17
2023-03-15T16:47:21.199Z,2.50
2023-03-15T16:49:49.030Z,2.50
2023-03-15T16:52:16.903Z,2.13
2023-03-15T16:54:47.590Z,2.53
2023-03-15T16:57:16.183Z,2.40
2023-03-15T16:59:43.510Z,2.27
2023-03-15T17:02:15.467Z,2.20
2023-03-15T17:04:42.831Z,2.50
2023-03-15T17:07:11.193Z,2.67
2023-03-15T17:09:38.551Z,2.47
2023-03-15T17:12:06.526Z,2.70
2023-03-15T17:14:35.133Z,2.40
2023-03-15T17:17:02.501Z,2.30
2023-03-15T17:19:30.817Z,2.73
2023-03-15T17:21:58.091Z,2.50
2023-03-15T17:24:25.422Z,2.87
2023-03-15T17:26:52.828Z,2.73
2023-03-15T17:29:21.026Z,3.40
2023-03-15T17:31:48.497Z,2.43
2023-03-15T17:34:15.909Z,3.37
2023-03-15T17:36:43.831Z,3.20
2023-03-15T17:39:12.904Z,2.73
2023-03-15T17:41:41.804Z,2.77
2023-03-15T17:44:10.043Z,2.80
2023-03-15T17:46:37.526Z,3.17
2023-03-15T17:49:06.110Z,3.00
2023-03-15T17:51:34.728Z,2.80
2023-03-15T17:54:02.931Z,3.00
2023-03-15T17:56:31.453Z,2.70
2023-03-15T17:58:58.794Z,3.13
2023-03-15T18:01:28.115Z,3.60
2023-03-15T18:03:56.122Z,2.90
2023-03-15T18:06:23.939Z,3.17
2023-03-15T18:08:51.318Z,2.83
2023-03-15T18:11:26.347Z,3.20
2023-03-15T18:13:53.944Z,3.07
2023-03-15T18:16:21.817Z,3.37
2023-03-15T18:18:49.174Z,3.07
2023-03-15T18:21:21.501Z,3.63
2023-03-15T18:23:49.780Z,4.00
2023-03-15T18:26:17.170Z,2.90
2023-03-15T18:28:44.703Z,3.53
2023-03-15T18:31:13.767Z,3.20
2023-03-15T18:33:41.254Z,3.60
2023-03-15T18:36:08.700Z,3.17
2023-03-15T18:38:36.413Z,2.97
2023-03-15T18:41:03.850Z,3.20
2023-03-15T18:43:31.189Z,3.63
2023-03-15T18:45:58.569Z,3.27
2023-03-15T18:48:39.767Z,3.73
2023-03-15T18:50:56.389Z,3.53
2023-03-15T18:53:24.008Z,3.03
2023-03-15T18:55:52.006Z,3.50
2023-03-15T18:58:19.383Z,3.73
2023-03-15T19:00:48.360Z,4.70
2023-03-15T19:03:15.706Z,3.17
2023-03-15T19:05:43.027Z,3.30
2023-03-15T19:08:10.364Z,3.53
2023-03-15T19:10:37.713Z,3.70
2023-03-15T19:13:05.078Z,3.53
2023-03-15T19:15:32.378Z,3.67
2023-03-15T19:17:59.726Z,3.77
2023-03-15T19:20:27.034Z,3.00
2023-03-15T19:22:54.456Z,4.30
2023-03-15T19:25:21.791Z,3.67
2023-03-15T19:27:49.283Z,3.30
2023-03-15T19:30:18.770Z,3.90
2023-03-15T19:32:47.789Z,4.30
2023-03-15T19:35:15.285Z,3.87
2023-03-15T19:37:44.214Z,3.53
2023-03-15T19:40:12.172Z,3.90
2023-03-15T19:42:39.610Z,3.60
2023-03-15T19:45:07.731Z,3.77
2023-03-15T19:47:35.071Z,3.87
2023-03-15T19:50:02.974Z,4.27
2023-03-15T19:52:32.024Z,3.57
2023-03-15T19:55:01.124Z,4.10
2023-03-15T19:57:28.689Z,4.27
2023-03-15T19:59:55.991Z,4.47
2023-03-15T20:02:23.502Z,4.10
2023-03-15T20:04:50.931Z,4.00
2023-03-15T20:07:18.427Z,3.97
2023-03-15T20:09:45.765Z,4.00
2023-03-15T20:12:13.593Z,4.50
2023-03-15T20:14:41.078Z,4.20
2023-03-15T20:17:08.388Z,3.80
2023-03-15T20:19:36.124Z,4.27
2023-03-15T20:22:03.490Z,4.03
2023-03-15T20:24:30.910Z,4.40
2023-03-15T20:26:58.253Z,4.23
2023-03-15T20:29:25.568Z,3.63
2023-03-15T20:31:53.263Z,3.87
2023-03-15T20:34:21.930Z,4.30
2023-03-15T20:36:49.278Z,3.80
2023-03-15T20:39:18.195Z,3.83
2023-03-15T20:41:45.515Z,4.07
2023-03-15T20:44:12.900Z,3.40
2023-03-15T20:46:40.874Z,3.70
2023-03-15T20:49:08.450Z,3.77
2023-03-15T20:51:35.963Z,3.90
2023-03-15T20:54:03.309Z,3.17
2023-03-15T20:56:30.582Z,3.90
2023-03-15T20:58:57.901Z,3.50
2023-03-15T21:01:25.235Z,3.47
2023-03-15T21:03:54.261Z,3.40
2023-03-15T21:06:21.775Z,4.00
2023-03-15T21:08:49.296Z,3.40
2023-03-15T21:11:16.645Z,3.47
2023-03-15T21:13:44.016Z,3.23
2023-03-15T21:16:13.471Z,3.97
2023-03-15T21:18:42.565Z,3.50
2023-03-15T21:21:10.427Z,3.83
2023-03-15T21:23:38.366Z,4.10
2023-03-15T21:26:07.125Z,3.50
2023-03-15T21:28:34.460Z,3.70
2023-03-15T21:31:01.800Z,3.90
2023-03-15T21:33:30.877Z,3.43
2023-03-15T21:36:01.824Z,3.20
2023-03-15T21:38:31.210Z,3.40
2023-03-15T21:40:59.582Z,3.43
2023-03-15T21:43:28.600Z,3.27
2023-03-15T21:45:56.285Z,3.30
2023-03-15T21:48:23.664Z,3.77
2023-03-15T21:50:52.736Z,3.50
2023-03-15T21:53:21.586Z,4.20
2023-03-15T21:55:49.035Z,3.90
2023-03-15T21:58:16.696Z,4.00
2023-03-15T22:00:44.296Z,3.60
2023-03-15T22:03:13.393Z,3.20
2023-03-15T22:05:40.726Z,3.83
2023-03-15T22:08:08.091Z,3.83
2023-03-15T22:10:35.603Z,3.93
2023-03-15T22:13:03.223Z,3.70
2023-03-15T22:15:30.539Z,3.70
2023-03-15T22:17:57.812Z,3.40
2023-03-15T22:20:25.624Z,3.30
2023-03-15T22:22:53.092Z,3.30
2023-03-15T22:25:20.718Z,3.70
2023-03-15T22:27:48.056Z,3.80
2023-03-15T22:30:17.449Z,4.00
2023-03-15T22:32:44.871Z,4.47
2023-03-15T22:35:13.228Z,3.43
2023-03-15T22:37:41.081Z,4.20
2023-03-15T22:40:09.156Z,4.67
2023-03-15T22:42:36.483Z,2.93
2023-03-15T22:45:03.982Z,3.50
2023-03-15T22:47:31.271Z,4.00
2023-03-15T22:49:59.663Z,4.27
2023-03-15T22:52:27.732Z,3.87
2023-03-15T22:54:55.176Z,4.33
2023-03-15T22:57:22.611Z,3.63
2023-03-15T22:59:49.942Z,3.87
2023-03-15T23:02:17.282Z,3.97
2023-03-15T23:04:45.750Z,4.17
2023-03-15T23:07:13.889Z,4.40
2023-03-15T23:09:41.224Z,4.27
2023-03-15T23:12:08.899Z,3.60
2023-03-15T23:14:36.370Z,3.80
2023-03-15T23:17:04.075Z,3.73
2023-03-15T23:19:36.693Z,3.97
2023-03-15T23:22:04.908Z,3.33
2023-03-15T23:24:34.238Z,3.77
2023-03-15T23:27:03.355Z,4.17
2023-03-15T23:29:34.169Z,4.13
2023-03-15T23:32:01.306Z,3.47
2023-03-15T23:34:28.682Z,3.40
2023-03-15T23:36:56.019Z,4.40
2023-03-15T23:39:24.075Z,3.97
2023-03-15T23:41:51.406Z,3.20
2023-03-15T23:44:18.718Z,3.87
2023-03-15T23:46:46.409Z,3.80
2023-03-15T23:49:13.782Z,3.83
2023-03-15T23:51:42.746Z,3.57
2023-03-15T23:54:11.003Z,3.30
2023-03-15T23:56:38.266Z,3.57
2023-03-15T23:59:05.727Z,3.17
